createdAt,value
2023-01-17T02:13:47.563Z,98546.98
2023-01-17T02:16:44.299Z,98538.92
2023-01-17T02:19:31.117Z,98531.11
2023-01-17T02:22:17.539Z,98524.23
2023-01-17T02:25:08.018Z,98519.95
2023-01-17T02:28:26.530Z,98513.48
2023-01-17T02:31:11.950Z,98509.08
2023-01-17T02:34:14.014Z,98505.48
2023-01-17T02:37:03.508Z,98501.19
2023-01-17T02:39:34.920Z,98493.17
2023-01-17T02:42:05.197Z,98488.04
2023-01-17T02:44:42.094Z,98483.70
2023-01-17T02:47:25.568Z,98480.41
2023-01-17T02:49:54.171Z,98473.89
2023-01-17T02:52:46.904Z,98477.59
2023-01-17T02:55:23.578Z,98484.88
2023-01-17T02:58:02.402Z,98486.20
2023-01-17T03:00:58.245Z,98486.96
2023-01-17T03:03:34.694Z,98489.33
2023-01-17T03:06:36.139Z,98484.14
2023-01-17T03:09:04.113Z,98483.38
2023-01-17T03:11:31.665Z,98487.20
2023-01-17T03:13:59.327Z,98486.27
2023-01-17T03:16:27.998Z,98483.55
2023-01-17T03:18:55.597Z,98481.26
2023-01-17T03:21:23.590Z,98485.48
2023-01-17T03:23:51.872Z,98484.70
2023-01-17T03:26:19.375Z,98489.52
2023-01-17T03:28:46.950Z,98489.02
2023-01-17T03:31:15.929Z,98488.81
2023-01-17T03:33:43.586Z,98488.61
2023-01-17T03:36:12.300Z,98490.70
2023-01-17T03:38:39.937Z,98490.27
2023-01-17T03:41:07.394Z,98490.06
2023-01-17T03:43:34.863Z,98488.57
2023-01-17T03:46:07.422Z,98487.05
2023-01-17T03:48:35.191Z,98488.70
2023-01-17T03:51:02.808Z,98486.27
2023-01-17T03:53:30.319Z,98496.00
2023-01-17T03:55:58.069Z,98495.91
2023-01-17T03:58:25.632Z,98494.11
2023-01-17T04:00:53.389Z,98497.45
2023-01-17T04:03:20.955Z,98498.90
2023-01-17T04:05:48.720Z,98501.81
2023-01-17T04:08:16.331Z,98493.99
2023-01-17T04:10:43.940Z,98485.91
2023-01-17T04:13:11.496Z,98483.63
2023-01-17T04:15:38.953Z,98479.91
2023-01-17T04:18:08.191Z,98474.13
2023-01-17T04:20:38.080Z,98469.92
2023-01-17T04:23:05.627Z,98466.79
2023-01-17T04:25:33.395Z,98457.33
2023-01-17T04:28:01.769Z,98449.65
2023-01-17T04:30:29.682Z,98444.30
2023-01-17T04:32:57.360Z,98436.98
2023-01-17T04:35:25.068Z,98442.45
2023-01-17T04:37:52.749Z,98451.05
2023-01-17T04:40:20.276Z,98462.84
2023-01-17T04:42:48.249Z,98470.54
2023-01-17T04:45:15.717Z,98473.48
2023-01-17T04:47:43.465Z,98475.86
2023-01-17T04:50:11.772Z,98473.02
2023-01-17T04:52:39.507Z,98476.77
2023-01-17T04:55:07.994Z,98475.77
2023-01-17T04:57:35.171Z,98479.74
2023-01-17T05:00:02.804Z,98474.66
2023-01-17T05:02:30.492Z,98481.79
2023-01-17T05:04:58.035Z,98488.14
2023-01-17T05:07:25.784Z,98489.15
2023-01-17T05:09:53.443Z,98479.58
2023-01-17T05:12:21.107Z,98478.23
2023-01-17T05:14:49.021Z,98474.50
2023-01-17T05:17:16.352Z,98471.84
2023-01-17T05:19:43.793Z,98473.50
2023-01-17T05:22:17.181Z,98485.41
2023-01-17T05:24:45.865Z,98492.24
2023-01-17T05:27:13.842Z,98496.50
2023-01-17T05:29:41.159Z,98497.23
2023-01-17T05:32:08.747Z,98496.30
2023-01-17T05:34:36.025Z,98496.00
2023-01-17T05:37:03.342Z,98500.77
2023-01-17T05:39:31.427Z,98497.17
2023-01-17T05:41:59.930Z,98495.84
2023-01-17T05:44:28.600Z,98496.48
2023-01-17T05:46:56.380Z,98493.32
2023-01-17T05:49:23.809Z,98491.27
2023-01-17T05:51:52.913Z,98490.29
2023-01-17T05:54:22.519Z,98491.17
2023-01-17T05:56:50.173Z,98497.31
2023-01-17T05:59:28.569Z,98507.58
2023-01-17T06:02:04.041Z,98499.58
2023-01-17T06:04:31.413Z,98492.45
2023-01-17T06:06:58.998Z,98491.02
2023-01-17T06:09:26.705Z,98486.82
2023-01-17T06:11:54.168Z,98480.20
2023-01-17T06:14:21.479Z,98475.05
2023-01-17T06:16:48.794Z,98470.88
2023-01-17T06:19:16.221Z,98464.08
2023-01-17T06:21:44.500Z,98458.88
2023-01-17T06:24:11.550Z,98457.92
2023-01-17T06:26:38.600Z,98457.06
2023-01-17T06:29:05.986Z,98461.91
2023-01-17T06:31:34.178Z,98458.23
2023-01-17T06:34:03.991Z,98459.53
2023-01-17T06:36:32.840Z,98463.33
2023-01-17T06:39:00.399Z,98448.77
2023-01-17T06:41:27.966Z,98445.70
2023-01-17T06:43:56.025Z,98443.53
2023-01-17T06:46:23.538Z,98437.63
2023-01-17T06:48:51.447Z,98437.75
2023-01-17T06:51:19.106Z,98433.80
2023-01-17T06:53:48.415Z,98426.67
2023-01-17T06:56:15.869Z,98427.95
2023-01-17T06:58:43.415Z,98423.41
2023-01-17T07:01:15.104Z,98424.48
2023-01-17T07:03:42.276Z,98422.80
2023-01-17T07:06:09.681Z,98419.90
2023-01-17T13:04:20.483Z,97856.41
2023-01-17T13:06:53.176Z,97817.96
2023-01-17T13:09:22.475Z,97806.50
2023-01-17T13:11:54.890Z,97799.48
2023-01-17T13:14:22.716Z,97782.64
2023-01-17T13:16:58.150Z,97774.49
2023-01-17T13:19:41.786Z,97762.93
2023-01-17T13:22:10.694Z,97753.23
2023-01-17T13:25:03.136Z,97743.73
2023-01-17T13:27:39.379Z,97738.34
2023-01-17T13:30:22.502Z,97735.17
2023-01-17T13:33:07.469Z,97727.02
2023-01-17T13:35:51.008Z,97716.84
2023-01-17T13:38:29.004Z,97702.17
2023-01-17T13:40:58.638Z,97696.38
2023-01-17T13:43:31.851Z,97682.42
2023-01-17T13:46:00.691Z,97669.62
2023-01-17T13:48:30.708Z,97666.08
2023-01-17T13:51:02.684Z,97659.73
2023-01-17T13:53:35.174Z,97645.17
2023-01-17T13:56:02.811Z,97638.02
2023-01-17T13:58:55.026Z,97629.23
2023-01-17T14:01:22.724Z,97619.03
2023-01-17T14:03:51.679Z,97606.27
2023-01-17T14:06:41.375Z,97606.48
2023-01-17T14:09:09.257Z,97603.16
2023-01-17T14:11:37.234Z,97598.48
2023-01-17T14:14:36.110Z,97595.20
2023-01-17T14:17:36.953Z,97592.94
2023-01-17T14:20:05.933Z,97582.76
2023-01-17T14:22:36.884Z,97590.54
2023-01-17T14:25:10.293Z,97589.77
2023-01-17T14:27:45.111Z,97582.67
2023-01-17T14:30:25.069Z,97576.24
2023-01-17T14:32:58.867Z,97567.42
2023-01-17T14:35:34.612Z,97561.54
2023-01-17T14:38:03.334Z,97558.20
2023-01-17T14:40:36.384Z,97545.97
2023-01-17T14:43:06.915Z,97534.59
2023-01-17T14:45:35.545Z,97521.55
2023-01-17T14:48:05.163Z,97509.11
2023-01-17T14:50:36.119Z,97503.11
2023-01-17T14:53:18.595Z,97506.15
2023-01-17T14:55:48.896Z,97507.48
2023-01-17T14:58:21.141Z,97509.33
2023-01-17T15:00:50.370Z,97515.80
2023-01-17T15:03:18.230Z,97522.21
2023-01-17T15:05:47.662Z,97520.98
2023-01-17T15:08:17.232Z,97516.03
2023-01-17T15:10:56.878Z,97515.79
2023-01-17T15:13:55.293Z,97511.58
2023-01-17T15:16:29.305Z,97511.58
2023-01-17T15:18:57.644Z,97511.59
2023-01-17T15:21:27.347Z,97510.06
2023-01-17T15:23:56.841Z,97513.34
2023-01-17T15:26:25.773Z,97511.30
2023-01-17T15:28:53.876Z,97502.02
2023-01-17T15:31:26.079Z,97505.61
2023-01-17T15:33:56.062Z,97508.19
2023-01-17T15:36:30.289Z,97505.73
2023-01-17T15:39:00.589Z,97503.48
2023-01-17T15:41:36.025Z,97494.34
2023-01-17T15:44:03.839Z,97491.59
2023-01-17T15:46:34.123Z,97485.92
2023-01-17T15:49:08.679Z,97488.58
2023-01-17T15:51:38.225Z,97483.09
2023-01-17T15:54:48.235Z,97469.89
2023-01-17T15:57:37.611Z,97462.66
2023-01-17T16:00:19.951Z,97455.50
2023-01-17T16:02:55.578Z,97446.82
2023-01-17T16:05:32.456Z,97428.64
2023-01-17T16:08:06.659Z,97418.91
2023-01-17T16:10:39.261Z,97400.30
2023-01-17T16:13:08.186Z,97393.20
2023-01-17T16:15:37.343Z,97379.18
2023-01-17T23:11:09.289Z,96922.29
2023-01-17T23:13:37.876Z,96683.69
2023-01-17T23:16:25.914Z,96713.54
2023-01-17T23:19:12.209Z,96791.25
2023-01-17T23:21:58.507Z,96894.35
2023-01-17T23:24:26.373Z,96975.56
2023-01-17T23:27:13.285Z,97022.64
2023-01-17T23:29:40.646Z,97061.98
2023-01-17T23:32:08.101Z,97091.45
2023-01-17T23:34:36.684Z,97109.23
2023-01-17T23:37:04.663Z,97121.45
2023-01-17T23:39:33.069Z,97126.88
2023-01-17T23:42:19.533Z,97128.45
2023-01-17T23:44:46.901Z,97131.25
2023-01-17T23:47:14.545Z,97145.30
2023-01-17T23:49:43.641Z,97145.96
2023-01-17T23:52:11.504Z,97142.19
2023-01-17T23:54:39.312Z,97146.09
2023-01-17T23:57:06.936Z,97153.83
2023-01-17T23:59:35.561Z,97151.30
